logo
Search for airport 
image banner adimage banner adimage banner ad
image banner ad

FA0394 - Black River Helistop

Located in , South Africa

ICAO - , IATA -

Data provided by Airmate  

General information

Coordinates: S33°54'29" E18°28'16"
Elevation is 18 feet MSL.
 
View others Airports in Western Cape

Operational data

Special qualification required
Current time UTC:
Current local time:
Weather at : - ( 0 km )
METAR: EKRN 290838Z 12009KT 1100 R11/P1500D R29/P1500D BR BKN002 14/12 Q1015
View NOTAMs / SUP AIP / TFR affecting this airport [VIEW]
Communications frequencies: [VIEW]

Runways:

Airport contact information

Address: South Africa

Satellite view of FA0394